WBSB/BWN METAR and TAF weather

Enter ICAO airport designator
Station Type Date Time Source
WBSB METAR 2018/12/11 22:30 UTC NOAA

WBSB 112230Z 21005KT 9999 FEW005 FEW015CB SCT140 BKN280 25/25 Q1010 NOSIG


Station Type Date Time Source
WBSB Decoded METAR 2018/12/11 22:30 UTC NOAA

Brunei Airport, Brunei (WBSB) 04-56N 114-56E 15M
Dec 11, 2018 - 05:30 PM EST / 2018.12.11 2230 UTC
Wind: from the SSW (210 degrees) at 6 MPH (5 KT):0
Visibility: greater than 7 mile(s):0
Sky conditions: mostly cloudy
Weather: Cumulonimbus clouds observed
Temperature: 77 F (25 C)
Dew Point: 77 F (25 C)
Relative Humidity: 100%
Pressure (altimeter): 29.83 in. Hg (1010 hPa)
ob: WBSB 112230Z 21005KT 9999 FEW005 FEW015CB SCT140 BKN280 25/25 Q1010 NOSIG
cycle: 22

Station Type Date Time Source
WBSB TAF 2018/12/11 18:09 UTC NOAA

TAF WBSB 111700Z 1118/1300 22003KT 9999 SCT014 FEW015CB
BECMG 1203/1205 33010KT FEW016 FEW017CB


Example: see airport list